ADDS METAR Data INFO
IDs: Format: Raw Decoded Include TAF

Data at: 1950 UTC 18 Feb 2018

KRHP 181935Z AUTO 27004KT 10SM CLR 18/06 A3021 RMK AO2 T01820055
KRHP 181915Z AUTO 27005KT 10SM CLR 18/05 A3021 RMK AO2 T01800050
KRHP 181855Z AUTO 30004KT 10SM CLR 17/05 A3022 RMK AO2 T01700046
KRHP 181835Z AUTO 27004KT 10SM CLR 17/05 A3023 RMK AO2 T01650050
KRHP 181815Z AUTO 25006KT 10SM CLR 16/05 A3025 RMK AO2 T01590052
KRHP 181755Z AUTO 26005KT 10SM CLR 15/05 A3025 RMK AO2 T01530050 10153 20012
KRHP 181735Z AUTO 26003KT 10SM CLR 15/04 A3026 RMK AO2 T01460042
KRHP 181715Z AUTO 24004KT 10SM CLR 14/04 A3027 RMK AO2 T01410038
KRHP 181655Z AUTO 26005KT 10SM CLR 13/04 A3028 RMK AO2 T01300037
KRHP 181635Z AUTO 25007KT 10SM CLR 13/06 A3028 RMK AO2 T01260056
KRHP 181615Z AUTO 26006KT 10SM CLR 12/04 A3028 RMK AO2 T01230041
KRHP 181555Z AUTO 00000KT 10SM CLR 12/04 A3028 RMK AO2 T01180040
KRHP 181535Z AUTO 00000KT 10SM CLR 11/03 A3028 RMK AO2 T01090031
KRHP 181515Z AUTO 00000KT 10SM CLR 10/04 A3028 RMK AO2 T01010035
KRHP 181455Z AUTO 00000KT 10SM CLR 09/05 A3028 RMK AO2 T00910045
KRHP 181435Z AUTO 07003KT 10SM CLR 08/05 A3028 RMK AO2 T00810046
KRHP 181415Z AUTO 08004KT 10SM CLR 07/04 A3028 RMK AO2 T00690040
KRHP 181355Z AUTO 00000KT 10SM CLR 06/05 A3028 RMK AO2 T00560046
KRHP 181335Z AUTO 00000KT 10SM CLR 05/05 A3027 RMK AO2 T00460046
KRHP 181315Z AUTO 00000KT 10SM CLR 03/03 A3026 RMK AO2 T00280028
KRHP 181255Z AUTO 12003KT 10SM CLR 02/02 A3025 RMK AO2 T00180018
KRHP 181235Z AUTO 12004KT 10SM CLR 01/01 A3024 RMK AO2 T00130013
KRHP 181215Z AUTO 04003KT 10SM CLR 02/02 A3023 RMK AO2 T00150015
KRHP 181155Z AUTO 02003KT 10SM CLR 02/02 A3023 RMK AO2 70040 T00190019 10087 20018
KRHP 181135Z AUTO 00000KT 10SM CLR 03/03 A3023 RMK AO2 T00280027
KRHP 181115Z AUTO 10003KT 10SM CLR 03/03 A3023 RMK AO2 T00280027
KRHP 181055Z AUTO 05003KT 10SM CLR 03/02 A3022 RMK AO2 T00320022
KRHP 181035Z AUTO 09004KT 10SM CLR 04/03 A3021 RMK AO2 T00410027
KRHP 181015Z AUTO 04003KT 10SM CLR 05/03 A3021 RMK AO2 T00460032
KRHP 180955Z AUTO 03005G14KT 10SM CLR 07/03 A3021 RMK AO2 T00660028
KRHP 180935Z AUTO 03003KT 10SM CLR 06/04 A3020 RMK AO2 T00560036
KRHP 180915Z AUTO 04004KT 10SM SCT028 06/04 A3020 RMK AO2 T00610038
KRHP 180855Z AUTO 07004KT 10SM BKN028 07/05 A3019 RMK AO2 T00650050
KRHP 180835Z AUTO 07006KT 10SM OVC026 08/04 A3019 RMK AO2 T00780044
KRHP 180815Z AUTO 08007KT 10SM OVC022 08/06 A3019 RMK AO2 T00840055
KRHP 180755Z AUTO 06008KT 10SM OVC022 09/06 A3018 RMK AO2 T00870063
KRHP 180735Z AUTO 06004KT 10SM BKN022 OVC028 08/07 A3018 RMK AO2 T00810072
KRHP 180715Z AUTO 00000KT 10SM OVC022 07/07 A3017 RMK AO2 T00740072
KRHP 180655Z AUTO 03003KT 10SM OVC022 08/07 A3016 RMK AO2 T00830073
KRHP 180635Z AUTO 00000KT 10SM BKN024 08/07 A3016 RMK AO2 T00810074
KRHP 180615Z AUTO 09004KT 10SM SCT026 08/08 A3016 RMK AO2 T00830077
KRHP 180555Z AUTO 05003KT 10SM BKN026 08/08 A3016 RMK AO2 60023 T00840079 10146 20084 401660060
KRHP 180535Z AUTO 00000KT 10SM SCT024 09/08 A3016 RMK AO2 T00900076
KRHP 180515Z AUTO 07004KT 10SM SCT024 09/08 A3015 RMK AO2 T00940080
KRHP 180455Z AUTO 03003KT 10SM SCT021 SCT036 10/09 A3015 RMK AO2 T01000086
KRHP 180435Z AUTO 35005KT 10SM SCT021 BKN027 OVC034 11/09 A3015 RMK AO2 T01120092
KRHP 180415Z AUTO 32003KT 10SM SCT019 BKN023 BKN027 12/09 A3015 RMK AO2 T01180093
KRHP 180355Z AUTO 29008KT 10SM BKN027 12/11 A3013 RMK AO2 T01200106
KRHP 180335Z AUTO 19006KT 10SM BKN018 OVC025 13/11 A3015 RMK AO2 T01250106
KRHP 180315Z AUTO 21007G15KT 10SM OVC022 13/11 A3014 RMK AO2 T01300110
KRHP 180255Z AUTO 23010G19KT 10SM -RA BKN024 OVC030 14/12 A3012 RMK AO2 P0003 60023 T01350116
KRHP 180235Z AUTO 24006KT 10SM -RA BKN026 OVC030 13/13 A3012 RMK AO2 P0003 T01340127
KRHP 180215Z AUTO 24004KT 10SM -RA BKN026 OVC031 14/13 A3010 RMK AO2 P0002 T01350131
KRHP 180155Z AUTO 27005KT 10SM -DZ BKN026 OVC039 14/13 A3011 RMK AO2 P0005 T01360132
KRHP 180135Z AUTO 26005KT 10SM -RA SCT028 BKN038 OVC055 14/13 A3008 RMK AO2 P0005 T01400130
KRHP 180115Z AUTO 24009G16KT 7SM RA SCT025 BKN031 OVC047 14/13 A3009 RMK AO2 P0004 T01410131
KRHP 180055Z AUTO 24009G17KT 10SM RA SCT024 BKN028 OVC047 15/13 A3008 RMK AO2 P0015 T01450132
KRHP 180035Z AUTO 24009G14KT 10SM -RA SCT008 BKN024 OVC055 15/14 A3007 RMK AO2 P0010 T01450139
KRHP 180015Z AUTO 23003KT 5SM RA BKN008 BKN013 OVC019 14/14 A3006 RMK AO2 P0007 T01400140
KRHP 172355Z AUTO 29003KT 5SM RA BKN010 BKN015 OVC031 14/14 A3006 RMK AO2 P0015 60016 T01410141 10166 20131
KRHP 172335Z AUTO 26005KT 3SM RA SCT010 OVC017 14/14 A3006 RMK AO2 P0008 T01410141
KRHP 172315Z AUTO 27005KT 5SM RA BKN020 OVC027 15/14 A3005 RMK AO2 P0003 T01450140
KRHP 172255Z AUTO 25011KT 5SM DZ BKN027 OVC035 16/13 A3004 RMK AO2 T01580131
KRHP 172235Z AUTO 24007KT 10SM OVC032 17/13 A3003 RMK AO2 T01650126
KRHP 172215Z AUTO 23007KT 10SM OVC034 17/13 A3003 RMK AO2 T01660125
KRHP 172155Z AUTO 24006KT 10SM OVC034 16/13 A3003 RMK AO2 T01560129
KRHP 172135Z AUTO 27006KT 10SM BKN029 OVC037 16/13 A3003 RMK AO2 T01570130
KRHP 172115Z AUTO 25012G21KT 10SM BKN030 BKN035 OVC047 16/13 A3004 RMK AO2 T01640127
KRHP 172055Z AUTO 26010G20KT 10SM SCT023 BKN031 OVC048 16/13 A3004 RMK AO2 60001 T01600130
KRHP 172035Z AUTO 23009KT 10SM BKN020 OVC027 15/13 A3006 RMK AO2 T01520130
KRHP 172015Z AUTO 27007KT 10SM OVC018 15/13 A3007 RMK AO2 T01450126
KRHP 171955Z AUTO 26006KT 10SM OVC018 14/13 A3007 RMK AO2 P0001 T01380125
KRHP 171935Z AUTO 27008KT 10SM -RA OVC018 14/12 A3007 RMK AO2 P0001 T01370122
KRHP 171915Z AUTO 27010G15KT 10SM OVC020 14/12 A3006 RMK AO2 T01410119
KRHP 171855Z AUTO 29011KT 10SM OVC020 14/12 A3006 RMK AO2 T01400115
KRHP 171835Z AUTO 29010G15KT 10SM OVC020 14/11 A3006 RMK AO2 T01370112
KRHP 171815Z AUTO 28011G20KT 10SM OVC020 14/11 A3007 RMK AO2 T01350111
KRHP 171755Z AUTO 00000KT 10SM OVC020 13/11 A3006 RMK AO2 T01320110 10137 20065
KRHP 171735Z AUTO 19003KT 10SM OVC020 13/11 A3007 RMK AO2 T01300108
KRHP 171715Z AUTO 28007KT 240V310 10SM -RA OVC022 13/10 A3007 RMK AO2 T01320101
KRHP 171655Z AUTO 35003KT 10SM OVC024 12/10 A3006 RMK AO2 T01230100
KRHP 171635Z AUTO 28007KT 10SM OVC028 13/10 A3007 RMK AO2 T01320096
KRHP 171615Z AUTO 25005KT 10SM OVC031 12/10 A3008 RMK AO2 T01240096
KRHP 171555Z AUTO 25006KT 10SM OVC031 10/09 A3009 RMK AO2 T01030087
KRHP 171535Z AUTO 00000KT 10SM OVC029 10/08 A3009 RMK AO2 T00950083
KRHP 171515Z AUTO 00000KT 10SM OVC027 08/08 A3010 RMK AO2 T00840075
KRHP 171455Z AUTO 00000KT 10SM OVC027 08/07 A3011 RMK AO2 T00820074
KRHP 171435Z AUTO 00000KT 10SM OVC029 08/07 A3012 RMK AO2 T00800072
KRHP 171415Z AUTO 00000KT 10SM OVC029 08/07 A3013 RMK AO2 T00780072
KRHP 171355Z AUTO 00000KT 10SM OVC031 08/07 A3013 RMK AO2 T00770071
KRHP 171335Z AUTO 00000KT 10SM OVC035 08/07 A3014 RMK AO2 T00750070
KRHP 171315Z AUTO 00000KT 10SM BKN039 OVC050 08/07 A3014 RMK AO2 T00750072
KRHP 171255Z AUTO 00000KT 10SM OVC050 07/07 A3014 RMK AO2 T00710070
KRHP 171235Z AUTO 00000KT 10SM OVC050 07/07 A3014 RMK AO2 T00670066
KRHP 171215Z AUTO 00000KT 10SM BKN050 BKN110 07/07 A3014 RMK AO2 T00660066
KRHP 171155Z AUTO 00000KT 10SM SCT050 07/07 A3015 RMK AO2 T00650065 10080 20060
KRHP 171135Z AUTO 00000KT 10SM SCT050 06/06 A3015 RMK AO2 T00630063
KRHP 171115Z AUTO 00000KT 10SM SCT050 06/06 A3015 RMK AO2 T00610060
KRHP 171055Z AUTO 00000KT 10SM CLR 07/06 A3014 RMK AO2 T00650063
KRHP 171035Z AUTO 34003KT 10SM SCT100 06/06 A3014 RMK AO2 T00620062
KRHP 171015Z AUTO 00000KT 10SM CLR 07/06 A3014 RMK AO2 T00650063
KRHP 170955Z AUTO 00000KT 10SM BKN110 07/07 A3013 RMK AO2 T00730070
KRHP 170935Z AUTO 00000KT 10SM OVC110 08/07 A3013 RMK AO2 T00750070
KRHP 170915Z AUTO 00000KT 10SM OVC100 08/07 A3013 RMK AO2 T00760071
KRHP 170855Z AUTO 22003KT 10SM OVC100 08/07 A3014 RMK AO2 T00770072
KRHP 170835Z AUTO 00000KT 10SM OVC100 08/07 A3014 RMK AO2 T00750070
KRHP 170815Z AUTO 00000KT 10SM OVC100 07/07 A3015 RMK AO2 T00740069
KRHP 170755Z AUTO 00000KT 10SM OVC100 07/07 A3015 RMK AO2 T00710070